Time;durP1;ratioP1;P1;durP2;ratioP2;P2;SDS_P1;SDS_P2;PMS_P1;PMS_P2;Temp;Humidity;BMP_temperature;BMP_pressure;BME280_temperature;BME280_humidity;BME280_pressure;Samples;Min_cycle;Max_cycle;Signal;HPM_P1;HPM_P2
2022/05/15 10:50:25;;;;;;;1.80;0.80;;;25.10;87.10;;;;;;4198092;23;20228;-72
2022/05/15 10:59:01;;;;;;;3.58;0.90;;;24.50;88.80;;;;;;4918717;29;20280;-72
2022/05/15 11:01:32;;;;;;;1.17;0.85;;;24.70;88.10;;;;;;4918383;29;20220;-72
2022/05/15 11:04:10;;;;;;;2.80;1.13;;;24.80;86.30;;;;;;4918607;29;20695;-72
2022/05/15 11:07:04;;;;;;;1.27;0.90;;;24.80;87.20;;;;;;4918451;29;20213;-72
2022/05/15 11:09:40;;;;;;;1.77;1.05;;;24.80;87.20;;;;;;4909458;29;20668;-72
2022/05/15 11:12:23;;;;;;;1.20;0.80;;;24.60;87.70;;;;;;4918507;29;20672;-71
2022/05/15 11:15:01;;;;;;;2.40;1.13;;;24.80;90.10;;;;;;4919042;29;20214;-71
2022/05/15 11:17:33;;;;;;;3.05;1.27;;;24.70;89.10;;;;;;4918623;29;20236;-71
2022/05/15 11:20:08;;;;;;;5.55;1.55;;;24.60;89.40;;;;;;4918589;29;20234;-72
2022/05/15 11:22:42;;;;;;;3.17;1.58;;;24.60;89.50;;;;;;4918342;29;20217;-71
2022/05/15 11:25:15;;;;;;;1.20;1.05;;;24.80;90.10;;;;;;4918170;29;20236;-71
2022/05/15 11:27:49;;;;;;;2.28;1.13;;;24.80;88.80;;;;;;4918486;29;20237;-72
2022/05/15 11:30:21;;;;;;;2.53;1.25;;;24.90;89.40;;;;;;4917961;29;20672;-71
2022/05/15 11:33:01;;;;;;;1.58;1.30;;;25.10;88.80;;;;;;4918403;29;20232;-71
2022/05/15 11:35:37;;;;;;;2.22;1.08;;;25.40;87.80;;;;;;4918073;29;20209;-72
2022/05/15 11:38:28;;;;;;;3.67;1.13;;;25.50;87.80;;;;;;4917654;29;20874;-72
2022/05/15 11:40:57;;;;;;;1.90;0.98;;;25.40;87.00;;;;;;4917769;29;20272;-73
2022/05/15 11:43:55;;;;;;;1.77;0.98;;;25.40;87.60;;;;;;4917529;29;20214;-71
2022/05/15 11:46:22;;;;;;;1.70;0.70;;;25.40;86.90;;;;;;4918152;29;20210;-71
2022/05/15 11:48:55;;;;;;;3.17;0.88;;;25.40;87.70;;;;;;4917689;29;20736;-72
2022/05/15 11:51:29;;;;;;;0.88;0.60;;;25.40;88.30;;;;;;4917052;29;20217;-71
2022/05/15 11:54:00;;;;;;;4.43;0.90;;;25.20;87.90;;;;;;4917051;29;20216;-72
2022/05/15 11:56:34;;;;;;;2.10;1.30;;;25.30;87.80;;;;;;4917311;29;20569;-71
2022/05/15 11:59:05;;;;;;;0.80;0.80;;;25.10;88.00;;;;;;4917494;29;20293;-71
2022/05/15 12:01:49;;;;;;;1.92;1.00;;;25.10;88.40;;;;;;4917252;29;20210;-72
2022/05/15 12:04:44;;;;;;;4.70;1.33;;;25.20;88.10;;;;;;4916978;29;20218;-71
2022/05/15 12:07:34;;;;;;;1.15;0.90;;;25.30;89.60;;;;;;4917349;29;20313;-72
2022/05/15 12:10:02;;;;;;;1.75;0.80;;;25.80;89.00;;;;;;4914241;29;20216;-71
2022/05/15 12:12:52;;;;;;;1.73;1.00;;;26.10;87.80;;;;;;4916821;29;20202;-72
2022/05/15 12:15:37;;;;;;;3.45;1.20;;;26.10;86.60;;;;;;4916571;29;20565;-71
2022/05/15 12:18:24;;;;;;;1.30;0.80;;;26.30;86.70;;;;;;4916837;29;20249;-73
2022/05/15 12:20:53;;;;;;;1.58;0.77;;;26.30;86.10;;;;;;4917555;29;20209;-72
2022/05/15 12:23:23;;;;;;;1.50;0.80;;;26.30;86.50;;;;;;4917285;29;20214;-71
2022/05/15 12:25:56;;;;;;;3.08;0.90;;;26.20;84.70;;;;;;4917015;29;20209;-71
2022/05/15 12:28:53;;;;;;;2.83;0.80;;;26.00;85.40;;;;;;4917048;29;20308;-72
2022/05/15 12:31:26;;;;;;;2.08;1.10;;;25.90;85.90;;;;;;4917009;29;20216;-71
2022/05/15 12:33:54;;;;;;;2.55;1.00;;;26.00;85.40;;;;;;4916941;29;20213;-71
2022/05/15 12:36:33;;;;;;;1.77;0.70;;;26.00;85.40;;;;;;4916981;29;20689;-72
2022/05/15 12:39:01;;;;;;;2.65;1.20;;;26.10;86.30;;;;;;4917165;29;20237;-72
2022/05/15 12:41:35;;;;;;;1.25;0.90;;;26.20;85.90;;;;;;4917027;29;20212;-72
2022/05/15 12:44:05;;;;;;;2.00;0.70;;;26.30;84.70;;;;;;4917000;29;20215;-73
2022/05/15 12:46:35;;;;;;;2.35;0.75;;;26.30;84.20;;;;;;4916822;29;20260;-72
2022/05/15 12:49:02;;;;;;;1.60;1.20;;;26.40;85.10;;;;;;4917338;29;20213;-72
2022/05/15 12:51:31;;;;;;;2.70;1.00;;;26.30;85.90;;;;;;4916649;29;20669;-72
2022/05/15 12:54:00;;;;;;;2.17;1.08;;;26.20;84.60;;;;;;4917011;29;20232;-72
2022/05/15 12:56:31;;;;;;;2.22;0.90;;;26.20;84.40;;;;;;4916969;29;20216;-73
2022/05/15 12:59:00;;;;;;;1.33;0.80;;;26.20;85.10;;;;;;4916820;29;20237;-71
2022/05/15 13:01:30;;;;;;;4.10;0.93;;;26.20;85.70;;;;;;4916513;29;20216;-73
2022/05/15 13:03:58;;;;;;;1.30;0.70;;;26.10;85.60;;;;;;4916685;29;20213;-72
2022/05/15 13:06:36;;;;;;;1.73;0.85;;;26.00;85.10;;;;;;4916502;29;20216;-73
2022/05/15 13:09:06;;;;;;;1.48;0.85;;;26.10;85.20;;;;;;4916770;29;20209;-73
2022/05/15 13:11:48;;;;;;;1.20;0.70;;;26.30;84.90;;;;;;4916482;29;20209;-72
2022/05/15 13:14:21;;;;;;;2.13;0.90;;;26.30;83.60;;;;;;4916805;29;20223;-71
2022/05/15 13:16:51;;;;;;;2.65;1.00;;;26.30;84.10;;;;;;4916623;29;20256;-73
2022/05/15 13:19:24;;;;;;;0.95;0.60;;;26.40;84.40;;;;;;4916519;29;20297;-72
2022/05/15 13:21:54;;;;;;;1.30;0.77;;;26.60;84.30;;;;;;4916623;29;20256;-71
2022/05/15 13:24:23;;;;;;;1.77;0.77;;;26.70;83.50;;;;;;4916741;29;20210;-72
2022/05/15 13:26:52;;;;;;;2.08;0.85;;;26.60;83.90;;;;;;4922624;29;20331;-72
2022/05/15 13:29:21;;;;;;;3.08;0.90;;;26.50;84.50;;;;;;4922839;29;20653;-72
2022/05/15 13:31:51;;;;;;;2.53;0.90;;;26.80;85.60;;;;;;4922854;29;20680;-72
2022/05/15 13:34:23;;;;;;;3.72;1.20;;;26.90;83.60;;;;;;4922587;29;20698;-72
2022/05/15 13:36:53;;;;;;;1.95;0.88;;;26.70;84.20;;;;;;4922500;29;20260;-72
2022/05/15 13:44:54;;;;;;;1.10;0.65;;;26.60;83.50;;;;;;4922356;29;20258;-73
2022/05/15 13:47:22;;;;;;;2.80;0.82;;;26.60;83.30;;;;;;4922805;29;20225;-72
2022/05/15 13:49:52;;;;;;;3.05;0.80;;;26.50;83.90;;;;;;4922594;29;20554;-72
2022/05/15 13:52:26;;;;;;;0.75;0.70;;;26.40;83.70;;;;;;4922749;29;20209;-71
2022/05/15 13:54:54;;;;;;;2.90;0.80;;;26.60;84.50;;;;;;4922558;29;20209;-71
2022/05/15 13:57:22;;;;;;;3.70;1.20;;;26.70;83.00;;;;;;4922427;29;20233;-71
2022/05/15 14:00:05;;;;;;;1.27;0.80;;;26.80;84.00;;;;;;4922550;29;20237;-71
2022/05/15 14:02:48;;;;;;;1.80;0.80;;;26.90;84.00;;;;;;4922570;29;20277;-71
2022/05/15 14:05:18;;;;;;;1.20;1.00;;;27.00;84.30;;;;;;4922714;29;20209;-71
2022/05/15 14:07:45;;;;;;;0.85;0.50;;;27.00;82.50;;;;;;4922287;29;20240;-71
2022/05/15 14:10:21;;;;;;;0.90;0.70;;;26.70;82.70;;;;;;4922840;29;20575;-71
2022/05/15 14:13:00;;;;;;;1.30;0.80;;;26.60;82.00;;;;;;4922419;29;20731;-71
2022/05/15 14:15:34;;;;;;;1.00;0.73;;;26.80;83.10;;;;;;4922320;29;20265;-72
2022/05/15 14:18:03;;;;;;;1.50;0.73;;;27.10;83.70;;;;;;4922134;29;20265;-72
2022/05/15 14:20:32;;;;;;;2.85;0.88;;;27.20;82.70;;;;;;4922365;29;20237;-73
2022/05/15 14:22:59;;;;;;;1.85;0.63;;;27.30;81.90;;;;;;4922816;29;20309;-73
2022/05/15 14:25:27;;;;;;;2.00;0.98;;;27.10;79.30;;;;;;4922780;29;20219;-72
2022/05/15 14:27:55;;;;;;;2.38;0.90;;;27.10;81.40;;;;;;4922144;29;20233;-71
2022/05/15 14:30:23;;;;;;;2.72;0.95;;;26.90;83.20;;;;;;4922722;29;20213;-71
2022/05/15 14:32:55;;;;;;;2.28;0.75;;;27.10;81.60;;;;;;4922106;29;20210;-72
2022/05/15 14:35:26;;;;;;;1.33;0.70;;;27.20;81.20;;;;;;4921966;29;20209;-71
2022/05/15 14:37:53;;;;;;;1.45;0.90;;;27.20;78.80;;;;;;4918146;29;20285;-71
2022/05/15 14:40:20;;;;;;;0.60;0.60;;;27.10;79.80;;;;;;4918500;29;20237;-71
2022/05/15 14:42:47;;;;;;;2.38;0.80;;;27.20;80.70;;;;;;4918394;29;20560;-71
2022/05/15 14:45:18;;;;;;;2.10;0.75;;;27.20;80.30;;;;;;4918800;29;20239;-72
2022/05/15 14:47:49;;;;;;;2.25;0.80;;;27.20;80.60;;;;;;4918681;29;20237;-71
2022/05/15 14:50:17;;;;;;;0.80;0.70;;;27.30;79.50;;;;;;4918313;29;20256;-71
2022/05/15 14:52:47;;;;;;;1.00;0.55;;;27.50;80.30;;;;;;4918195;29;20673;-71
2022/05/15 14:57:56;;;;;;;1.05;0.65;;;27.30;76.60;;;;;;4918519;29;20230;-72
2022/05/15 15:00:28;;;;;;;2.60;0.80;;;27.40;77.50;;;;;;4918693;29;20241;-71
2022/05/15 15:02:55;;;;;;;0.80;0.63;;;27.40;78.10;;;;;;4919030;29;20209;-72
2022/05/15 15:05:21;;;;;;;1.30;0.65;;;27.40;79.40;;;;;;4919152;29;20206;-71
2022/05/15 15:07:48;;;;;;;1.83;0.93;;;27.20;78.50;;;;;;4918715;29;20230;-72
2022/05/15 15:10:15;;;;;;;1.35;0.80;;;27.00;79.40;;;;;;4918702;29;20206;-71
2022/05/15 15:12:44;;;;;;;2.05;1.23;;;27.00;80.20;;;;;;4918628;29;20217;-71
2022/05/15 15:15:11;;;;;;;1.00;0.73;;;27.10;81.20;;;;;;4918549;29;20210;-71
2022/05/15 15:17:39;;;;;;;1.80;0.98;;;27.10;79.70;;;;;;4918540;29;20236;-70
2022/05/15 15:20:08;;;;;;;1.10;0.80;;;27.00;80.60;;;;;;4918328;29;20242;-71
2022/05/15 15:22:34;;;;;;;2.28;0.75;;;27.00;80.00;;;;;;4918227;29;20210;-71
2022/05/15 15:25:01;;;;;;;3.22;0.85;;;27.00;78.10;;;;;;4917524;29;20217;-71
2022/05/15 15:27:29;;;;;;;1.65;0.80;;;26.90;79.20;;;;;;4918378;29;20585;-71
2022/05/15 15:29:56;;;;;;;3.38;0.90;;;27.00;80.20;;;;;;4918327;29;20213;-71
2022/05/15 15:32:23;;;;;;;0.90;0.70;;;27.00;74.50;;;;;;4918099;29;20657;-71
2022/05/15 15:34:51;;;;;;;2.00;0.95;;;26.90;73.20;;;;;;4918085;29;20665;-72
2022/05/15 15:40:02;;;;;;;1.75;0.60;;;26.90;75.20;;;;;;4917844;29;20828;-71
2022/05/15 15:42:29;;;;;;;0.73;0.60;;;27.10;75.60;;;;;;4918057;29;20252;-72
2022/05/15 15:44:56;;;;;;;1.48;0.75;;;27.10;74.30;;;;;;4917985;29;20661;-72
2022/05/15 15:47:23;;;;;;;3.28;0.95;;;27.20;75.20;;;;;;4918062;29;20701;-72
2022/05/15 15:49:51;;;;;;;1.20;0.70;;;27.00;76.60;;;;;;4917639;29;20673;-71
2022/05/15 15:52:18;;;;;;;2.97;0.60;;;27.10;76.90;;;;;;4918120;29;20221;-71
2022/05/15 15:54:44;;;;;;;1.77;0.88;;;27.10;77.00;;;;;;4918006;29;20669;-72
2022/05/15 15:57:11;;;;;;;1.73;0.70;;;27.10;79.20;;;;;;4914253;29;20692;-72
2022/05/15 15:59:38;;;;;;;0.90;0.70;;;26.90;78.40;;;;;;4913997;29;20238;-71
2022/05/15 16:02:05;;;;;;;1.98;0.98;;;26.80;79.10;;;;;;4916185;29;20657;-71
2022/05/15 16:04:32;;;;;;;1.23;0.85;;;26.80;80.70;;;;;;4916405;29;20205;-71
2022/05/15 16:07:00;;;;;;;2.38;0.82;;;26.80;76.30;;;;;;4916537;29;20225;-71
2022/05/15 16:09:27;;;;;;;2.55;0.60;;;26.90;77.20;;;;;;4915697;29;20206;-71
2022/05/15 16:11:53;;;;;;;2.92;0.90;;;26.80;75.40;;;;;;4915751;29;20205;-71
2022/05/15 16:14:21;;;;;;;1.58;0.82;;;26.80;76.40;;;;;;4915665;29;20661;-71
2022/05/15 16:16:49;;;;;;;1.27;0.80;;;26.70;75.60;;;;;;4917402;29;20237;-71
2022/05/15 16:19:16;;;;;;;1.02;0.60;;;26.70;77.20;;;;;;4916854;29;20216;-71
2022/05/15 16:21:47;;;;;;;1.00;0.60;;;26.70;78.50;;;;;;4917498;29;20206;-71
2022/05/15 16:24:18;;;;;;;2.58;1.00;;;26.80;77.10;;;;;;4917694;29;20209;-72
2022/05/15 16:26:46;;;;;;;2.88;0.90;;;26.90;78.20;;;;;;4917389;29;20580;-71
2022/05/15 16:29:14;;;;;;;1.17;0.70;;;26.90;77.80;;;;;;4917223;29;20308;-71
2022/05/15 16:31:42;;;;;;;1.27;0.70;;;26.70;77.40;;;;;;4917087;29;20454;-72
2022/05/15 16:34:09;;;;;;;1.08;0.60;;;26.70;77.50;;;;;;4917016;29;20664;-71
2022/05/15 16:36:36;;;;;;;1.08;0.65;;;26.70;78.10;;;;;;4916685;29;20217;-71
2022/05/15 16:39:03;;;;;;;1.35;0.82;;;26.70;77.70;;;;;;4916983;29;20213;-72
2022/05/15 16:41:31;;;;;;;1.33;0.70;;;26.70;75.20;;;;;;4916970;29;20256;-71
2022/05/15 16:43:58;;;;;;;2.05;0.93;;;26.70;77.90;;;;;;4916965;29;20214;-71
2022/05/15 16:46:26;;;;;;;2.35;0.70;;;26.80;77.90;;;;;;4916996;29;20206;-71
2022/05/15 16:48:53;;;;;;;0.85;0.80;;;26.60;78.10;;;;;;4916532;29;20629;-71
2022/05/15 16:51:20;;;;;;;3.10;0.90;;;26.50;78.50;;;;;;4916547;29;20229;-71
2022/05/15 16:53:48;;;;;;;2.95;0.75;;;26.50;79.20;;;;;;4917018;29;20341;-71
2022/05/15 16:56:14;;;;;;;1.45;0.68;;;26.50;77.70;;;;;;4916816;29;20554;-71
2022/05/15 16:58:43;;;;;;;1.48;0.77;;;26.40;78.60;;;;;;4916424;29;20237;-71
2022/05/15 17:01:10;;;;;;;1.00;0.70;;;26.40;79.10;;;;;;4916113;29;20772;-71
2022/05/15 17:03:38;;;;;;;1.38;0.80;;;26.30;78.30;;;;;;4913500;29;20206;-71
2022/05/15 17:06:05;;;;;;;1.17;0.65;;;26.30;79.00;;;;;;4905560;29;20680;-71
2022/05/15 17:08:32;;;;;;;0.77;0.70;;;26.20;78.30;;;;;;4906960;29;20221;-71
2022/05/15 17:10:59;;;;;;;2.28;0.75;;;26.20;78.40;;;;;;4905530;29;20203;-71
2022/05/15 17:13:26;;;;;;;1.25;0.80;;;26.30;79.20;;;;;;4916926;29;20213;-71
2022/05/15 17:15:55;;;;;;;2.70;1.10;;;26.30;78.40;;;;;;4916751;29;20209;-70
2022/05/15 17:18:22;;;;;;;1.83;0.88;;;26.20;78.50;;;;;;4916219;29;20233;-71
2022/05/15 17:20:55;;;;;;;1.05;0.85;;;26.10;78.70;;;;;;4916317;29;20233;-71
2022/05/15 17:23:22;;;;;;;1.98;1.00;;;26.10;79.50;;;;;;4915965;29;20673;-71
2022/05/15 17:25:49;;;;;;;1.73;0.80;;;26.10;79.80;;;;;;4916138;29;20216;-71
2022/05/15 17:34:12;;;;;;;3.50;0.90;;;26.10;80.20;;;;;;4916254;29;20236;-70
2022/05/15 17:36:33;;;;;;;3.38;1.25;;;26.00;80.80;;;;;;4916234;29;20345;-71
2022/05/15 17:39:00;;;;;;;1.33;0.70;;;26.00;81.20;;;;;;4908684;29;20300;-73
2022/05/15 17:41:27;;;;;;;1.05;0.82;;;25.90;80.00;;;;;;4915068;29;20756;-72
2022/05/15 17:43:54;;;;;;;1.23;0.75;;;25.80;80.70;;;;;;4915031;29;20244;-72
2022/05/15 17:46:22;;;;;;;2.40;0.75;;;25.70;81.00;;;;;;4912761;29;20213;-72
2022/05/15 17:48:49;;;;;;;2.03;1.00;;;25.70;81.40;;;;;;4914962;29;20225;-72
2022/05/15 17:51:16;;;;;;;0.77;0.70;;;25.70;81.80;;;;;;4915075;29;20665;-71
2022/05/15 17:53:43;;;;;;;2.58;1.00;;;25.70;81.90;;;;;;4914740;29;20206;-72
2022/05/15 17:56:10;;;;;;;1.85;0.90;;;25.60;82.10;;;;;;4915091;29;20209;-71
2022/05/15 17:58:37;;;;;;;1.98;0.90;;;25.60;82.70;;;;;;4914415;29;20731;-72
2022/05/15 18:01:04;;;;;;;1.48;0.90;;;25.50;83.50;;;;;;4914485;29;20775;-73
2022/05/15 18:03:32;;;;;;;1.70;0.60;;;25.40;83.10;;;;;;4914995;29;20214;-72
2022/05/15 18:06:00;;;;;;;1.48;0.70;;;25.40;83.40;;;;;;4915348;29;20232;-73
2022/05/15 18:08:26;;;;;;;1.42;1.20;;;25.30;82.90;;;;;;4913747;29;20237;-73
2022/05/15 18:10:53;;;;;;;4.15;1.40;;;25.20;83.10;;;;;;4915479;29;20220;-73
2022/05/15 18:13:20;;;;;;;2.65;1.23;;;25.20;83.40;;;;;;4918688;29;20209;-73
2022/05/15 18:15:48;;;;;;;3.40;1.02;;;25.10;83.80;;;;;;4918534;29;20218;-72
2022/05/15 18:18:15;;;;;;;3.10;0.90;;;25.00;84.10;;;;;;4918497;29;20324;-73
2022/05/15 18:20:43;;;;;;;1.48;0.70;;;24.90;84.60;;;;;;4918512;29;20591;-72
2022/05/15 18:23:10;;;;;;;1.17;0.82;;;24.90;84.50;;;;;;4917914;29;20213;-72
2022/05/15 18:25:37;;;;;;;1.13;0.73;;;24.90;85.20;;;;;;4917664;29;20560;-72
2022/05/15 18:28:05;;;;;;;1.50;0.90;;;24.80;85.30;;;;;;4917919;29;20223;-73
2022/05/15 18:30:34;;;;;;;2.97;0.80;;;24.70;85.80;;;;;;4917773;29;20209;-72
2022/05/15 18:33:01;;;;;;;1.85;0.82;;;24.70;85.90;;;;;;4918198;29;20257;-72
2022/05/15 18:35:28;;;;;;;1.90;1.05;;;24.60;86.00;;;;;;4918060;29;20205;-72
2022/05/15 18:37:56;;;;;;;1.05;0.80;;;24.70;85.50;;;;;;4917193;29;20221;-72
2022/05/15 18:40:24;;;;;;;1.40;0.85;;;24.60;86.10;;;;;;4913523;29;20237;-75
2022/05/15 18:42:52;;;;;;;1.10;0.70;;;24.60;85.80;;;;;;4917861;29;20217;-76
2022/05/15 18:45:20;;;;;;;1.40;0.88;;;24.50;86.60;;;;;;4917543;29;20244;-75
2022/05/15 18:47:47;;;;;;;3.20;0.93;;;24.60;86.20;;;;;;4917876;29;20237;-75
2022/05/15 18:55:44;;;;;;;2.40;0.80;;;24.10;86.60;;;;;;4936470;29;20240;-74
2022/05/15 18:58:11;;;;;;;4.10;1.05;;;24.20;86.60;;;;;;4929495;29;20373;-73
2022/05/15 19:00:38;;;;;;;2.47;0.93;;;24.00;86.60;;;;;;4917168;29;20319;-74
2022/05/15 19:03:06;;;;;;;2.25;1.00;;;24.00;86.80;;;;;;4917534;29;20696;-73
2022/05/15 19:05:33;;;;;;;3.60;0.70;;;24.00;86.50;;;;;;4916957;29;20214;-73
2022/05/15 19:08:01;;;;;;;3.35;0.90;;;24.00;86.90;;;;;;4916701;29;20218;-73
2022/05/15 19:10:28;;;;;;;5.72;0.90;;;23.80;87.20;;;;;;4928963;29;20213;-73
2022/05/15 19:12:55;;;;;;;1.33;0.90;;;23.60;87.70;;;;;;4936468;29;20209;-74
2022/05/15 19:15:23;;;;;;;1.67;0.77;;;23.50;88.00;;;;;;4937856;29;20209;-72
2022/05/15 19:17:49;;;;;;;3.05;1.13;;;23.30;88.50;;;;;;4936698;29;20267;-71
2022/05/15 19:20:17;;;;;;;3.95;1.10;;;23.20;89.10;;;;;;4937205;29;20205;-71
2022/05/15 19:22:44;;;;;;;4.07;1.10;;;23.00;89.30;;;;;;4936541;29;20209;-71
2022/05/15 19:25:13;;;;;;;1.70;1.30;;;23.00;90.00;;;;;;4937345;29;20205;-72
2022/05/15 19:27:39;;;;;;;2.90;1.10;;;22.90;90.10;;;;;;4937151;29;20228;-72
2022/05/15 19:30:09;;;;;;;1.73;1.00;;;22.80;90.20;;;;;;4937095;29;20212;-72
2022/05/15 19:32:36;;;;;;;2.13;1.33;;;22.70;90.90;;;;;;4937060;29;20236;-72
2022/05/15 19:35:04;;;;;;;3.17;1.30;;;22.60;89.80;;;;;;4937064;29;20545;-72
2022/05/15 19:37:31;;;;;;;2.75;1.40;;;22.50;90.10;;;;;;4937464;29;20232;-72
2022/05/15 19:39:57;;;;;;;1.48;1.20;;;22.40;90.20;;;;;;4937264;29;20208;-72
2022/05/15 19:42:26;;;;;;;4.32;1.65;;;22.30;90.30;;;;;;4936994;29;20237;-73
2022/05/15 19:44:53;;;;;;;2.92;1.30;;;22.20;90.40;;;;;;4936993;29;20213;-71
2022/05/15 19:47:19;;;;;;;2.85;1.40;;;22.10;90.30;;;;;;4936916;29;20228;-73
2022/05/15 19:49:46;;;;;;;2.75;1.55;;;22.10;90.60;;;;;;4937314;29;20231;-72
2022/05/15 19:52:13;;;;;;;3.80;1.30;;;22.10;91.20;;;;;;4937167;29;20213;-73
2022/05/15 19:54:40;;;;;;;3.10;1.63;;;22.10;91.20;;;;;;4937220;29;20232;-72
2022/05/15 19:57:08;;;;;;;6.28;1.92;;;21.90;90.80;;;;;;4936993;29;20691;-72
2022/05/15 19:59:37;;;;;;;3.58;1.70;;;21.90;90.90;;;;;;4937062;29;20255;-73
2022/05/15 20:02:05;;;;;;;2.95;1.50;;;21.90;90.70;;;;;;4936768;29;20695;-72
2022/05/15 20:11:30;;;;;;;4.10;2.08;;;21.80;90.80;;;;;;4937017;29;20247;-72
2022/05/15 20:12:51;;;;;;;4.22;1.83;;;21.60;90.80;;;;;;4898374;29;20261;-71
2022/05/15 20:15:20;;;;;;;4.18;2.00;;;21.50;90.90;;;;;;4898497;29;20214;-72
2022/05/15 20:17:47;;;;;;;3.63;2.00;;;21.50;91.40;;;;;;4901908;29;20728;-72
2022/05/15 20:20:14;;;;;;;3.63;2.40;;;21.50;91.20;;;;;;4908431;29;20206;-72
2022/05/15 20:22:41;;;;;;;4.65;2.15;;;21.40;90.70;;;;;;4897705;29;20240;-73
2022/05/15 20:25:09;;;;;;;3.60;2.00;;;21.40;91.10;;;;;;4909887;29;20202;-72
2022/05/15 20:27:36;;;;;;;6.35;2.42;;;21.40;91.10;;;;;;4916386;29;20727;-73
2022/05/15 20:30:03;;;;;;;4.00;2.22;;;21.40;91.60;;;;;;4916041;29;20661;-72
2022/05/15 20:32:31;;;;;;;3.47;1.92;;;21.40;92.40;;;;;;4915068;29;20202;-72
2022/05/15 20:34:59;;;;;;;3.45;1.98;;;21.40;93.00;;;;;;4910994;29;20653;-71
2022/05/15 20:37:27;;;;;;;3.47;2.33;;;21.30;92.20;;;;;;4903555;29;20232;-71
2022/05/15 20:39:53;;;;;;;4.38;1.92;;;21.10;91.70;;;;;;4898753;29;20214;-72
2022/05/15 20:42:22;;;;;;;4.75;2.28;;;21.00;91.90;;;;;;4917046;29;20434;-72
2022/05/15 20:44:49;;;;;;;4.75;2.67;;;21.00;91.70;;;;;;4916752;29;20209;-72
2022/05/15 20:47:16;;;;;;;5.63;2.17;;;20.90;91.70;;;;;;4916619;29;20232;-72
2022/05/15 20:49:44;;;;;;;3.03;2.00;;;20.80;91.60;;;;;;4916566;29;20206;-72
2022/05/15 20:52:11;;;;;;;6.00;2.85;;;20.80;91.40;;;;;;4915049;29;20217;-72
2022/05/15 20:54:38;;;;;;;5.63;2.10;;;20.80;91.60;;;;;;4909768;29;20198;-72
2022/05/15 20:57:05;;;;;;;7.45;2.17;;;20.80;91.80;;;;;;4915992;29;20225;-72
2022/05/15 20:59:34;;;;;;;4.35;2.15;;;20.90;92.00;;;;;;4916043;29;20202;-73
2022/05/15 21:02:01;;;;;;;4.35;1.80;;;21.00;92.00;;;;;;4915856;29;20249;-71
2022/05/15 21:04:28;;;;;;;4.20;2.17;;;20.90;91.80;;;;;;4914163;29;20206;-72
2022/05/15 21:06:56;;;;;;;4.32;1.50;;;20.90;91.80;;;;;;4915271;29;20217;-72
2022/05/15 21:09:23;;;;;;;2.88;1.50;;;20.90;91.90;;;;;;4908178;29;20217;-74
2022/05/15 21:11:49;;;;;;;3.42;1.80;;;20.80;91.60;;;;;;4906368;29;20212;-71
2022/05/15 21:14:16;;;;;;;2.33;1.40;;;20.80;91.80;;;;;;4895622;29;20214;-73
2022/05/15 21:16:44;;;;;;;4.45;1.80;;;20.80;92.10;;;;;;4907755;29;20543;-73
2022/05/15 21:19:12;;;;;;;3.28;1.85;;;20.80;91.90;;;;;;4897477;29;20206;-73
2022/05/15 21:21:39;;;;;;;4.13;1.60;;;20.80;91.80;;;;;;4904330;29;20229;-73
2022/05/15 21:24:08;;;;;;;2.65;1.90;;;20.90;91.80;;;;;;4910729;29;20220;-72
2022/05/15 21:26:36;;;;;;;1.80;1.20;;;20.90;91.90;;;;;;4905036;29;20209;-74
2022/05/15 21:29:03;;;;;;;6.00;1.45;;;20.90;92.00;;;;;;4911459;29;20606;-73
2022/05/15 21:31:30;;;;;;;3.95;1.08;;;20.90;92.20;;;;;;4896841;29;20222;-72
2022/05/15 21:33:56;;;;;;;3.00;1.42;;;20.90;92.20;;;;;;4902668;29;20680;-73
2022/05/15 21:36:23;;;;;;;2.90;1.17;;;20.80;92.30;;;;;;4907744;29;20217;-74
2022/05/15 21:44:20;;;;;;;2.75;1.00;;;20.90;92.60;;;;;;4900186;29;20358;-73
2022/05/15 21:46:47;;;;;;;1.48;1.10;;;21.00;92.90;;;;;;4914531;29;20229;-73
2022/05/15 21:49:14;;;;;;;3.97;1.17;;;21.00;93.20;;;;;;4914963;29;20292;-75
2022/05/15 21:51:41;;;;;;;1.67;1.10;;;20.90;92.90;;;;;;4908978;29;20670;-74
2022/05/15 21:54:08;;;;;;;1.85;1.00;;;20.90;93.10;;;;;;4913506;29;20212;-72
2022/05/15 21:56:36;;;;;;;2.67;1.00;;;20.90;93.50;;;;;;4918333;29;20213;-73
2022/05/15 22:01:47;;;;;;;1.45;0.90;;;20.70;93.60;;;;;;4917272;29;20596;-75
2022/05/15 22:04:14;;;;;;;2.17;0.90;;;20.70;93.60;;;;;;4917732;29;20216;-74
2022/05/15 22:06:41;;;;;;;4.20;1.05;;;20.70;94.30;;;;;;4910600;29;20206;-73
2022/05/15 22:09:08;;;;;;;3.78;1.02;;;20.70;93.60;;;;;;4916121;29;20234;-75
2022/05/15 22:11:36;;;;;;;0.93;0.80;;;20.70;94.10;;;;;;4914773;29;20206;-72
2022/05/15 22:14:03;;;;;;;3.85;1.00;;;20.70;94.00;;;;;;4911618;29;20203;-76
